Time;durP1;ratioP1;P1;durP2;ratioP2;P2;SDS_P1;SDS_P2;PMS_P1;PMS_P2;Temp;Humidity;BMP_temperature;BMP_pressure;BME280_temperature;BME280_humidity;BME280_pressure;Samples;Min_cycle;Max_cycle;Signal;HPM_P1;HPM_P2
2022/06/27 00:01:41;;;;;;;8.97;3.40;;;;;;;18.78;79.68;100566.95;1465990;92;21206;-81
2022/06/27 00:04:07;;;;;;;3.70;3.17;;;;;;;18.76;79.69;100559.64;1321990;94;21439;-81
2022/06/27 00:06:34;;;;;;;9.07;3.40;;;;;;;18.72;80.15;100561.84;1464840;94;21409;-81
2022/06/27 00:09:04;;;;;;;7.43;3.87;;;;;;;18.69;80.62;100560.07;1430882;93;21375;-81
2022/06/27 00:11:31;;;;;;;8.70;4.40;;;;;;;18.65;80.20;100570.37;1443160;94;21364;-80
2022/06/27 00:13:57;;;;;;;4.57;3.17;;;;;;;18.59;80.52;100573.02;1454059;94;21333;-80
2022/06/27 00:16:23;;;;;;;9.30;3.37;;;;;;;18.55;80.59;100569.88;1312226;94;21302;-80
2022/06/27 00:18:49;;;;;;;4.00;3.43;;;;;;;18.56;80.34;100574.72;1403398;93;21284;-80
2022/06/27 00:21:15;;;;;;;5.47;2.77;;;;;;;18.57;80.68;100577.73;1442027;94;21353;-80
2022/06/27 00:23:41;;;;;;;5.77;3.63;;;;;;;18.59;79.98;100579.72;1426931;94;21213;-80
2022/06/27 00:26:08;;;;;;;4.63;3.03;;;;;;;18.59;79.23;100578.38;1334789;93;22808;-80
2022/06/27 00:28:34;;;;;;;6.57;4.20;;;;;;;18.58;79.70;100579.37;1361344;93;22752;-80
2022/06/27 00:31:01;;;;;;;6.30;4.07;;;;;;;18.49;79.87;100576.84;1481822;92;21191;-80
2022/06/27 00:33:27;;;;;;;6.87;3.60;;;;;;;18.46;79.36;100577.76;1321237;94;22224;-80
2022/06/27 00:35:53;;;;;;;4.57;3.60;;;;;;;18.41;80.11;100578.84;1372818;94;21321;-81
2022/06/27 00:38:20;;;;;;;6.13;3.23;;;;;;;18.36;80.52;100575.95;1447703;93;21460;-81
2022/06/27 00:40:46;;;;;;;6.17;4.17;;;;;;;18.34;81.08;100568.61;1448902;93;21351;-81
2022/06/27 00:43:13;;;;;;;12.17;3.30;;;;;;;18.31;82.09;100565.80;1368664;93;21587;-81
2022/06/27 00:45:39;;;;;;;5.80;3.00;;;;;;;18.31;81.34;100563.13;1385380;93;22488;-81
2022/06/27 00:48:06;;;;;;;7.40;3.33;;;;;;;18.32;81.30;100563.43;1388355;94;22585;-81
2022/06/27 00:50:32;;;;;;;6.37;3.60;;;;;;;18.33;80.71;100563.77;1404852;92;21517;-81
2022/06/27 00:52:58;;;;;;;8.40;3.90;;;;;;;18.31;81.49;100566.32;1411615;92;21434;-81
2022/06/27 00:55:25;;;;;;;4.43;3.47;;;;;;;18.23;81.26;100560.07;1404085;92;22319;-81
2022/06/27 00:57:52;;;;;;;4.73;3.80;;;;;;;18.15;82.21;100559.38;1386753;94;21533;-81
2022/06/27 01:00:19;;;;;;;6.90;3.40;;;;;;;18.10;82.19;100563.18;1398719;94;23529;-81
2022/06/27 01:02:45;;;;;;;4.83;3.67;;;;;;;18.06;82.57;100571.27;1391448;93;21570;-82
2022/06/27 01:05:13;;;;;;;5.97;3.47;;;;;;;18.03;83.26;100563.10;1397375;93;22573;-80
2022/06/27 01:07:40;;;;;;;6.07;3.83;;;;;;;17.97;83.43;100558.00;1386775;93;22502;-79
2022/06/27 01:10:07;;;;;;;4.83;3.53;;;;;;;17.93;83.07;100563.44;1389414;93;21534;-79
2022/06/27 01:12:34;;;;;;;5.07;4.03;;;;;;;17.91;82.89;100567.33;1383980;94;21596;-79
2022/06/27 01:15:01;;;;;;;10.73;3.97;;;;;;;17.86;83.38;100563.88;1397305;93;21335;-79
2022/06/27 01:17:28;;;;;;;5.47;4.00;;;;;;;17.83;83.97;100569.62;1386725;94;21445;-79
2022/06/27 01:19:55;;;;;;;4.63;3.87;;;;;;;17.79;84.10;100568.36;1390508;94;21452;-79
2022/06/27 01:22:21;;;;;;;5.60;3.63;;;;;;;17.76;84.53;100571.39;1388003;94;21450;-79
2022/06/27 01:24:47;;;;;;;5.57;3.83;;;;;;;17.74;84.25;100577.43;1395523;93;23390;-79
2022/06/27 01:27:13;;;;;;;9.10;4.60;;;;;;;17.71;84.50;100582.65;1403140;92;21469;-79
2022/06/27 01:29:40;;;;;;;5.83;3.87;;;;;;;17.74;84.64;100584.12;1412507;92;22349;-79
2022/06/27 01:32:07;;;;;;;4.30;3.80;;;;;;;17.76;84.29;100579.41;1409081;92;21447;-79
2022/06/27 01:34:33;;;;;;;5.37;4.37;;;;;;;17.76;83.47;100576.73;1420158;92;21882;-79
2022/06/27 01:37:00;;;;;;;5.93;3.50;;;;;;;17.72;84.10;100576.30;1416538;92;22547;-79
2022/06/27 01:39:28;;;;;;;5.03;3.43;;;;;;;17.67;83.83;100577.89;1419403;92;21363;-79
2022/06/27 01:41:58;;;;;;;5.50;3.87;;;;;;;17.62;84.06;100574.95;1416421;92;21418;-78
2022/06/27 01:44:28;;;;;;;4.23;3.10;;;;;;;17.55;84.25;100577.53;1406314;92;22397;-79
2022/06/27 01:47:08;;;;;;;6.05;4.00;;;;;;;17.50;84.86;100582.64;1384507;94;21548;-79
2022/06/27 01:49:37;;;;;;;6.15;4.25;;;;;;;17.45;84.86;100581.86;1394001;94;21482;-79
2022/06/27 01:52:07;;;;;;;6.00;3.97;;;;;;;17.45;85.31;100575.17;1395206;93;22839;-80
2022/06/27 01:54:34;;;;;;;7.83;3.67;;;;;;;17.46;85.58;100575.99;1408254;93;21602;-80
2022/06/27 01:57:01;;;;;;;4.27;3.83;;;;;;;17.44;85.48;100580.22;1403726;92;21997;-80
2022/06/27 01:59:30;;;;;;;4.33;3.93;;;;;;;17.43;84.72;100574.52;1404514;93;21526;-80
2022/06/27 02:01:58;;;;;;;6.03;3.30;;;;;;;17.40;84.84;100572.23;1401525;92;21554;-81
2022/06/27 02:04:26;;;;;;;4.87;3.90;;;;;;;17.39;84.98;100577.78;1374817;94;21569;-80
2022/06/27 02:06:52;;;;;;;10.07;4.00;;;;;;;17.34;85.26;100573.81;1388042;92;21585;-80
2022/06/27 02:09:19;;;;;;;5.87;4.80;;;;;;;17.34;85.05;100579.16;1406816;92;21587;-80
2022/06/27 02:11:49;;;;;;;10.87;3.77;;;;;;;17.32;85.25;100577.20;1414812;92;21661;-80
2022/06/27 02:14:15;;;;;;;;;;;;;;;17.31;85.42;100581.39;1397477;92;22258;-80
2022/06/27 02:16:43;;;;;;;4.53;3.70;;;;;;;17.30;86.46;100575.21;1383930;93;20463;-80
2022/06/27 02:19:15;;;;;;;6.53;4.40;;;;;;;17.28;85.45;100578.58;1384652;93;22302;-80
2022/06/27 02:21:42;;;;;;;6.73;4.97;;;;;;;17.26;85.39;100575.77;1383509;94;21371;-80
2022/06/27 02:24:10;;;;;;;8.23;4.27;;;;;;;17.21;85.55;100576.34;1397434;92;21412;-81
2022/06/27 02:26:37;;;;;;;8.90;4.50;;;;;;;17.18;85.78;100578.06;1397681;92;22371;-81
2022/06/27 02:29:04;;;;;;;7.03;4.53;;;;;;;17.14;85.90;100581.59;1386296;92;21452;-80
2022/06/27 02:31:31;;;;;;;7.47;4.60;;;;;;;17.12;86.13;100578.30;1401116;92;22354;-81
2022/06/27 02:33:58;;;;;;;4.87;4.23;;;;;;;17.09;86.38;100577.81;1402979;92;21539;-79
2022/06/27 02:36:41;;;;;;;10.13;3.73;;;;;;;17.07;86.38;100583.37;1410946;92;21525;-79
2022/06/27 02:39:19;;;;;;;5.80;3.80;;;;;;;17.08;86.08;100593.03;1394369;92;21425;-79
2022/06/27 02:41:47;;;;;;;4.87;4.33;;;;;;;17.10;85.49;100587.52;1407382;91;21449;-80
2022/06/27 02:44:14;;;;;;;8.87;4.17;;;;;;;17.09;85.56;100591.19;1408431;92;21447;-80
2022/06/27 02:46:41;;;;;;;7.73;4.17;;;;;;;17.07;85.65;100593.24;1419701;92;22326;-80
2022/06/27 02:49:09;;;;;;;5.97;4.20;;;;;;;17.03;85.28;100598.14;1411229;92;21406;-81
2022/06/27 02:51:43;;;;;;;9.67;3.90;;;;;;;17.01;85.65;100598.00;1393530;92;22306;-80
2022/06/27 02:54:23;;;;;;;4.47;3.83;;;;;;;17.00;85.44;100590.97;1390704;92;21531;-80
2022/06/27 02:57:24;;;;;;;6.97;3.77;;;;;;;16.99;85.94;100592.82;1390768;92;21456;-80
2022/06/27 02:59:54;;;;;;;6.87;3.30;;;;;;;16.98;85.96;100595.70;1394603;92;21599;-81
2022/06/27 03:02:21;;;;;;;7.95;4.15;;;;;;;16.98;85.66;100596.52;1403610;92;21590;-81
2022/06/27 03:04:48;;;;;;;6.37;4.57;;;;;;;16.99;85.71;100598.17;1396089;92;21427;-81
2022/06/27 03:07:14;;;;;;;6.20;4.00;;;;;;;16.98;85.52;100589.02;1412632;92;22376;-81
2022/06/27 03:09:40;;;;;;;10.17;4.07;;;;;;;16.99;85.44;100586.65;1397635;92;21449;-82
2022/06/27 03:12:07;;;;;;;11.43;4.00;;;;;;;17.02;85.20;100583.09;1390773;92;22388;-81
2022/06/27 03:14:34;;;;;;;5.97;4.40;;;;;;;17.11;85.02;100587.83;1389247;92;21441;-82
2022/06/27 03:17:00;;;;;;;5.20;3.80;;;;;;;17.21;84.84;100584.88;1412635;92;21436;-82
2022/06/27 03:19:26;;;;;;;6.07;4.60;;;;;;;17.30;84.66;100586.42;1400216;92;21625;-82
2022/06/27 03:21:53;;;;;;;5.37;4.00;;;;;;;17.37;84.02;100590.00;1377080;92;22308;-82
2022/06/27 03:24:20;;;;;;;5.47;3.93;;;;;;;17.42;84.03;100596.95;1382670;94;21500;-83
2022/06/27 03:26:46;;;;;;;10.83;4.47;;;;;;;17.44;83.63;100594.11;1388408;92;21384;-83
2022/06/27 03:29:12;;;;;;;7.93;4.23;;;;;;;17.45;83.45;100595.23;1410108;92;21384;-83
2022/06/27 03:31:38;;;;;;;7.87;4.07;;;;;;;17.44;83.70;100598.94;1417443;92;21377;-82
2022/06/27 03:34:04;;;;;;;15.97;4.60;;;;;;;17.45;83.47;100594.41;1414821;92;21296;-82
2022/06/27 03:36:30;;;;;;;7.37;4.40;;;;;;;17.46;83.54;100597.40;1400860;92;21370;-82
2022/06/27 03:38:57;;;;;;;7.97;4.70;;;;;;;17.52;83.22;100596.64;1414721;92;21525;-82
2022/06/27 03:41:23;;;;;;;8.10;4.37;;;;;;;17.59;82.98;100601.06;1415210;92;21325;-80
2022/06/27 03:43:50;;;;;;;8.57;5.17;;;;;;;17.61;83.00;100606.23;1406748;91;21348;-82
2022/06/27 03:46:16;;;;;;;14.07;5.33;;;;;;;17.62;83.01;100601.70;1404448;92;21289;-82
2022/06/27 03:51:27;;;;;;;5.43;3.73;;;;;;;17.68;82.95;100614.33;1407267;92;21555;-81
2022/06/27 03:53:53;;;;;;;3.70;3.40;;;;;;;17.74;82.65;100598.84;1401815;92;22407;-81
2022/06/27 03:56:19;;;;;;;6.47;3.47;;;;;;;17.82;82.74;100600.09;1405350;92;21408;-81
2022/06/27 03:58:46;;;;;;;4.10;3.43;;;;;;;17.89;82.51;100599.63;1416530;92;21415;-81
2022/06/27 04:01:13;;;;;;;5.77;3.90;;;;;;;17.94;82.04;100595.06;1398800;92;21370;-81
2022/06/27 04:03:39;;;;;;;6.00;3.80;;;;;;;17.98;81.84;100593.16;1393446;92;23500;-82
2022/06/27 04:06:06;;;;;;;6.93;4.07;;;;;;;18.04;81.75;100595.58;1379749;93;21512;-81
2022/06/27 04:08:32;;;;;;;5.93;3.57;;;;;;;18.09;81.74;100597.14;1397063;92;21382;-81
2022/06/27 04:10:59;;;;;;;6.37;3.57;;;;;;;18.15;81.60;100596.89;1415242;92;21489;-81
2022/06/27 04:13:25;;;;;;;14.40;4.27;;;;;;;18.23;81.36;100594.07;1386213;94;21524;-81
2022/06/27 04:15:51;;;;;;;6.90;3.53;;;;;;;18.31;81.41;100592.59;1390266;92;21338;-81
2022/06/27 04:18:17;;;;;;;5.63;3.57;;;;;;;18.40;81.24;100594.10;1399761;94;22292;-81
2022/06/27 04:20:43;;;;;;;5.07;4.23;;;;;;;18.49;80.98;100588.91;1390229;92;21786;-80
2022/06/27 04:23:09;;;;;;;11.73;3.90;;;;;;;18.63;80.61;100598.39;1393621;94;21287;-81
2022/06/27 04:25:35;;;;;;;7.93;4.40;;;;;;;18.69;80.49;100594.92;1385894;92;21450;-82
2022/06/27 04:28:01;;;;;;;9.13;3.83;;;;;;;18.77;80.02;100593.46;1394138;93;22324;-81
2022/06/27 04:30:28;;;;;;;8.00;4.00;;;;;;;18.88;79.92;100600.95;1404614;92;21385;-82
2022/06/27 04:32:57;;;;;;;13.47;3.90;;;;;;;19.01;79.73;100604.72;1396213;92;22307;-82
2022/06/27 04:35:24;;;;;;;13.27;5.70;;;;;;;19.14;79.45;100612.33;1393153;92;21408;-82
2022/06/27 04:37:51;;;;;;;8.97;3.60;;;;;;;19.26;78.98;100613.92;1394230;92;22875;-81
2022/06/27 04:40:22;;;;;;;7.73;3.70;;;;;;;19.38;78.38;100619.03;1409278;92;21901;-83
2022/06/27 04:42:48;;;;;;;8.13;4.50;;;;;;;19.49;77.75;100620.83;1413903;92;21473;-82
2022/06/27 04:45:14;;;;;;;7.37;4.63;;;;;;;19.57;77.63;100618.80;1396911;92;22412;-82
2022/06/27 04:47:41;;;;;;;10.48;4.40;;;;;;;19.65;77.25;100621.85;1383387;94;21436;-80
2022/06/27 04:50:12;;;;;;;13.85;4.80;;;;;;;19.76;77.12;100627.13;1383387;92;21416;-77
2022/06/27 04:52:38;;;;;;;;;;;;;;;19.85;77.07;100632.61;1404378;92;21443;-77
2022/06/27 04:55:08;;;;;;;7.05;4.80;;;;;;;19.95;76.38;100626.86;1402968;92;20294;-77
2022/06/27 04:57:37;;;;;;;4.85;4.33;;;;;;;20.05;75.87;100624.59;1418679;92;22404;-76
2022/06/27 05:00:07;;;;;;;10.00;4.53;;;;;;;20.18;75.40;100623.27;1391947;92;21412;-76
2022/06/27 05:02:34;;;;;;;7.28;4.65;;;;;;;20.33;75.14;100623.58;1392573;94;21509;-76
2022/06/27 05:05:00;;;;;;;10.08;5.37;;;;;;;20.40;74.07;100625.73;1408287;92;21459;-76
2022/06/27 05:07:26;;;;;;;8.78;5.12;;;;;;;20.54;74.38;100631.45;1408486;92;21451;-76
2022/06/27 05:09:54;;;;;;;7.90;4.37;;;;;;;20.66;73.79;100632.50;1408259;92;21533;-76
2022/06/27 05:12:20;;;;;;;9.58;4.35;;;;;;;20.82;73.75;100637.12;1393035;92;21396;-77
2022/06/27 05:14:48;;;;;;;5.08;4.17;;;;;;;20.93;73.04;100633.78;1393509;92;23393;-78
2022/06/27 05:17:15;;;;;;;8.63;4.17;;;;;;;21.06;72.10;100637.80;1413117;92;21526;-75
2022/06/27 05:19:41;;;;;;;11.45;4.28;;;;;;;21.22;71.89;100645.09;1412703;92;21444;-76
2022/06/27 05:22:08;;;;;;;8.30;4.22;;;;;;;21.37;71.22;100643.80;1405031;91;22033;-76
2022/06/27 05:24:34;;;;;;;6.08;3.80;;;;;;;21.55;69.79;100649.86;1402575;92;23336;-76
2022/06/27 05:27:01;;;;;;;9.33;4.92;;;;;;;21.71;69.10;100651.74;1405097;92;21414;-76
2022/06/27 05:29:27;;;;;;;7.33;3.92;;;;;;;21.86;68.12;100653.09;1400781;92;21412;-76
2022/06/27 05:31:54;;;;;;;5.17;3.50;;;;;;;21.99;68.12;100653.55;1384707;94;21567;-76
2022/06/27 05:34:21;;;;;;;13.20;4.20;;;;;;;22.12;67.32;100655.31;1390055;92;21583;-76
2022/06/27 05:36:48;;;;;;;11.97;3.62;;;;;;;22.24;66.82;100654.97;1410123;92;21902;-77
2022/06/27 05:39:16;;;;;;;4.60;3.62;;;;;;;22.38;65.91;100654.84;1408963;92;21800;-77
2022/06/27 05:41:45;;;;;;;4.47;2.87;;;;;;;22.47;65.93;100667.00;1397344;92;21490;-77
2022/06/27 05:44:13;;;;;;;3.37;2.95;;;;;;;22.59;65.71;100667.13;1409114;92;22396;-77
2022/06/27 05:46:43;;;;;;;8.60;2.92;;;;;;;22.71;64.80;100664.01;1411037;92;21497;-77
2022/06/27 05:49:11;;;;;;;5.75;2.52;;;;;;;22.79;63.94;100670.47;1402713;92;21427;-76
2022/06/27 05:51:38;;;;;;;7.37;3.10;;;;;;;22.94;63.90;100668.23;1436958;92;21539;-75
2022/06/27 05:54:05;;;;;;;7.83;2.95;;;;;;;23.08;63.35;100672.19;1429879;91;21593;-75
2022/06/27 05:56:33;;;;;;;5.53;2.52;;;;;;;23.17;62.09;100671.66;1489301;92;21335;-77
2022/06/27 05:59:00;;;;;;;5.58;2.62;;;;;;;23.28;61.06;100669.27;1351412;92;21493;-79
2022/06/27 06:01:27;;;;;;;2.75;2.55;;;;;;;23.37;60.00;100679.53;1346936;94;21392;-77
2022/06/27 06:03:56;;;;;;;9.68;2.80;;;;;;;23.46;59.66;100672.48;1476535;92;21309;-78
2022/06/27 06:06:22;;;;;;;2.77;2.35;;;;;;;23.53;59.45;100679.95;1482189;92;21460;-77
2022/06/27 06:08:50;;;;;;;7.75;2.67;;;;;;;23.60;59.28;100682.89;1436332;92;21413;-77
2022/06/27 06:11:20;;;;;;;3.20;2.62;;;;;;;23.69;58.68;100672.59;1445548;93;22387;-77
2022/06/27 06:13:46;;;;;;;4.37;2.70;;;;;;;23.80;58.59;100678.61;1485797;92;21305;-77
2022/06/27 06:16:19;;;;;;;4.40;2.17;;;;;;;23.91;57.23;100677.51;1326495;92;21339;-77
2022/06/27 06:18:41;;;;;;;12.18;2.92;;;;;;;24.03;57.23;100668.94;1326148;92;21362;-77
2022/06/27 06:21:07;;;;;;;4.50;2.72;;;;;;;24.13;56.33;100671.88;1391986;92;21408;-77
2022/06/27 06:23:33;;;;;;;7.55;2.40;;;;;;;24.23;55.82;100674.86;1381675;92;21353;-77
2022/06/27 06:26:02;;;;;;;3.80;2.75;;;;;;;24.33;55.74;100669.69;1477176;92;21314;-77
2022/06/27 06:28:31;;;;;;;4.93;2.40;;;;;;;24.44;55.09;100669.98;1388782;92;21332;-77
2022/06/27 06:30:57;;;;;;;5.00;2.65;;;;;;;24.56;54.64;100669.46;1318589;94;21451;-77
2022/06/27 06:33:24;;;;;;;2.83;2.12;;;;;;;24.63;54.20;100674.25;1467850;92;21473;-77
2022/06/27 06:35:50;;;;;;;3.45;2.70;;;;;;;24.71;53.47;100680.64;1465302;92;21288;-76
2022/06/27 06:38:18;;;;;;;5.08;2.45;;;;;;;24.80;53.06;100677.58;1464996;94;22264;-77
2022/06/27 06:40:44;;;;;;;6.95;2.37;;;;;;;24.90;53.06;100680.53;1459617;92;21184;-77
2022/06/27 06:43:13;;;;;;;2.40;2.12;;;;;;;24.97;52.21;100678.52;1357081;92;21444;-77
2022/06/27 06:45:40;;;;;;;4.75;2.35;;;;;;;25.03;51.70;100678.95;1457468;92;21317;-77
2022/06/27 06:48:08;;;;;;;5.80;2.08;;;;;;;25.14;51.94;100678.11;1410409;92;21293;-77
2022/06/27 06:50:35;;;;;;;5.33;2.40;;;;;;;25.19;50.97;100676.88;1467148;92;21348;-77
2022/06/27 06:53:01;;;;;;;11.73;2.40;;;;;;;25.30;51.37;100673.86;1398404;92;22721;-77
2022/06/27 06:55:29;;;;;;;6.50;2.42;;;;;;;25.42;51.08;100677.89;1372376;92;21355;-77
2022/06/27 06:57:56;;;;;;;4.65;1.90;;;;;;;25.52;50.79;100676.76;1343320;92;21459;-77
2022/06/27 07:00:22;;;;;;;2.35;2.00;;;;;;;25.63;50.48;100681.82;1460030;92;21475;-77
2022/06/27 07:02:49;;;;;;;6.97;2.50;;;;;;;25.72;50.01;100678.20;1377677;92;21399;-77
2022/06/27 07:05:16;;;;;;;8.13;2.65;;;;;;;25.81;50.25;100681.66;1380602;94;21445;-77
2022/06/27 07:07:43;;;;;;;5.00;1.87;;;;;;;25.94;49.99;100684.63;1388203;93;21481;-77
2022/06/27 07:10:13;;;;;;;2.47;1.98;;;;;;;26.07;49.72;100686.22;1378861;94;21944;-77
2022/06/27 07:12:41;;;;;;;2.65;2.27;;;;;;;26.15;48.82;100681.73;1381339;94;23261;-77
2022/06/27 07:15:12;;;;;;;5.22;2.20;;;;;;;26.22;48.40;100681.59;1461693;94;21262;-77
2022/06/27 07:17:44;;;;;;;7.87;2.15;;;;;;;26.29;48.02;100675.46;1400321;92;22900;-77
2022/06/27 07:20:12;;;;;;;5.22;2.37;;;;;;;26.37;47.89;100678.31;1480722;92;21260;-78
2022/06/27 07:22:40;;;;;;;4.58;1.90;;;;;;;26.47;47.56;100673.88;1489050;92;22673;-78
2022/06/27 07:25:09;;;;;;;2.20;1.90;;;;;;;26.58;47.05;100676.77;1309867;95;21497;-78
2022/06/27 07:27:36;;;;;;;2.33;2.12;;;;;;;26.67;47.01;100674.77;1452540;93;22145;-79
2022/06/27 07:30:09;;;;;;;3.15;2.05;;;;;;;26.82;47.03;100680.95;1487900;92;21223;-78
2022/06/27 07:32:39;;;;;;;6.42;2.02;;;;;;;26.89;46.10;100682.94;1335263;92;21304;-78
2022/06/27 07:35:09;;;;;;;3.85;1.70;;;;;;;26.97;46.51;100682.52;1475636;92;22169;-79
2022/06/27 07:37:40;;;;;;;2.98;2.05;;;;;;;27.09;46.22;100690.56;1344749;92;21390;-79
2022/06/27 07:40:08;;;;;;;7.28;2.27;;;;;;;27.23;45.96;100685.62;1472028;92;22218;-78
2022/06/27 07:42:35;;;;;;;5.87;1.90;;;;;;;27.27;45.71;100684.03;1465828;92;22138;-79
2022/06/27 07:45:02;;;;;;;5.35;2.10;;;;;;;27.35;45.16;100687.67;1474296;92;21275;-79
2022/06/27 07:47:29;;;;;;;3.55;2.10;;;;;;;27.43;44.75;100678.26;1455435;92;22189;-79
2022/06/27 07:49:55;;;;;;;5.40;2.10;;;;;;;27.48;44.79;100676.12;1467507;92;22359;-80
2022/06/27 07:52:22;;;;;;;4.08;2.33;;;;;;;27.56;44.42;100681.11;1465415;92;21236;-80
2022/06/27 07:54:48;;;;;;;6.10;1.90;;;;;;;27.64;44.27;100680.67;1445924;92;21575;-89
2022/06/27 07:57:15;;;;;;;5.80;1.95;;;;;;;27.68;43.59;100683.17;1384553;94;21442;-91
2022/06/27 07:59:42;;;;;;;4.05;1.82;;;;;;;27.80;43.98;100689.31;1384230;94;21568;-89
2022/06/27 08:02:09;;;;;;;4.08;2.02;;;;;;;27.92;43.45;100682.91;1405328;92;21437;-86
2022/06/27 08:04:37;;;;;;;5.28;1.90;;;;;;;28.00;43.10;100677.01;1401877;92;21385;-87
2022/06/27 08:07:10;;;;;;;5.00;1.70;;;;;;;28.06;42.49;100678.70;1412112;92;21474;-92
2022/06/27 08:09:38;;;;;;;6.55;2.02;;;;;;;28.14;42.80;100675.52;1407936;92;21584;-91
2022/06/27 08:12:05;;;;;;;8.03;2.52;;;;;;;28.22;42.94;100675.02;1391454;92;21502;-90
2022/06/27 08:14:31;;;;;;;9.25;2.45;;;;;;;28.32;42.84;100677.02;1385849;92;21390;-88
2022/06/27 08:16:59;;;;;;;5.33;1.60;;;;;;;28.38;41.90;100677.34;1404589;91;21518;-90
2022/06/27 08:19:26;;;;;;;6.47;1.62;;;;;;;28.41;42.04;100677.36;1406232;91;21406;-88
2022/06/27 08:21:54;;;;;;;3.98;1.87;;;;;;;28.49;42.34;100679.09;1398708;92;22543;-89
2022/06/27 08:24:22;;;;;;;3.02;1.50;;;;;;;28.60;42.21;100675.07;1389344;92;23033;-89
2022/06/27 08:26:49;;;;;;;4.70;2.15;;;;;;;28.63;41.58;100667.22;1404653;92;21459;-89
2022/06/27 08:29:15;;;;;;;3.95;1.85;;;;;;;28.78;41.50;100663.77;1387925;92;22508;-89
2022/06/27 08:31:46;;;;;;;2.87;1.65;;;;;;;28.89;41.29;100664.66;1387677;94;21443;-89
2022/06/27 08:34:12;;;;;;;3.70;2.20;;;;;;;29.04;41.16;100674.30;1403014;92;21399;-88
2022/06/27 08:36:40;;;;;;;8.93;1.62;;;;;;;29.06;40.42;100670.78;1403269;92;21437;-90
2022/06/27 08:39:16;;;;;;;8.58;1.72;;;;;;;29.06;40.44;100670.78;1408931;92;21400;-89
2022/06/27 08:41:41;;;;;;;4.30;1.87;;;;;;;29.12;40.28;100662.91;1492344;92;21452;-91
2022/06/27 08:44:07;;;;;;;6.72;1.70;;;;;;;29.21;39.88;100671.39;1467073;92;21445;-79
2022/06/27 08:46:34;;;;;;;9.35;2.10;;;;;;;29.28;39.61;100676.59;1465389;92;21206;-79
2022/06/27 08:49:02;;;;;;;6.20;1.77;;;;;;;29.42;39.74;100673.64;1363967;94;21450;-79
2022/06/27 08:51:29;;;;;;;3.50;2.00;;;;;;;29.43;39.31;100661.64;1477680;92;21265;-79
2022/06/27 08:53:57;;;;;;;2.50;1.60;;;;;;;29.48;38.97;100657.58;1481934;92;21290;-79
2022/06/27 08:56:27;;;;;;;4.92;1.80;;;;;;;29.57;38.80;100667.42;1373403;92;21289;-78
2022/06/27 08:58:59;;;;;;;3.77;1.90;;;;;;;29.59;37.91;100655.16;1479621;92;21238;-79
2022/06/27 09:01:27;;;;;;;4.95;1.32;;;;;;;29.73;38.96;100660.14;1436600;92;21501;-78
2022/06/27 09:04:01;;;;;;;2.95;1.47;;;;;;;29.78;38.56;100658.77;1467738;92;21302;-78
2022/06/27 09:06:33;;;;;;;3.98;1.62;;;;;;;29.84;37.78;100659.08;1308625;95;21326;-79
2022/06/27 09:09:08;;;;;;;4.53;2.08;;;;;;;29.93;37.77;100661.53;1350199;92;21434;-79
2022/06/27 09:11:38;;;;;;;3.02;1.82;;;;;;;29.95;37.92;100649.78;1440055;94;21339;-79
2022/06/27 09:14:08;;;;;;;2.00;1.50;;;;;;;30.06;38.07;100653.35;1465008;92;22658;-79
2022/06/27 09:16:35;;;;;;;6.65;1.62;;;;;;;30.07;37.19;100648.19;1383072;92;21420;-79
2022/06/27 09:19:04;;;;;;;3.65;1.80;;;;;;;30.17;36.67;100645.99;1385818;92;21419;-79
2022/06/27 09:21:30;;;;;;;5.42;2.15;;;;;;;30.37;37.15;100654.20;1386930;94;21383;-79
2022/06/27 09:24:00;;;;;;;4.47;2.08;;;;;;;30.47;37.11;100650.63;1389430;94;22357;-79
2022/06/27 09:26:34;;;;;;;1.95;1.60;;;;;;;30.58;36.71;100648.16;1467436;92;21383;-80
2022/06/27 09:29:14;;;;;;;3.08;1.57;;;;;;;30.58;36.75;100642.18;1394562;94;21418;-80
2022/06/27 09:31:50;;;;;;;9.33;1.70;;;;;;;30.76;37.03;100650.88;1450957;93;21509;-81
2022/06/27 09:34:21;;;;;;;12.55;2.05;;;;;;;30.90;36.49;100643.77;1455932;92;21393;-80
2022/06/27 09:36:55;;;;;;;3.42;1.52;;;;;;;30.89;35.50;100643.48;1467757;92;22738;-80
2022/06/27 09:39:31;;;;;;;4.53;1.65;;;;;;;31.01;36.18;100641.80;1471015;92;21377;-81
2022/06/27 09:42:02;;;;;;;3.30;1.40;;;;;;;30.96;35.65;100641.29;1476738;92;21297;-81
2022/06/27 09:44:38;;;;;;;1.65;1.52;;;;;;;31.18;35.83;100646.94;1489338;92;22030;-80
2022/06/27 09:47:16;;;;;;;3.87;1.50;;;;;;;31.27;35.01;100643.87;1438325;92;21504;-80
2022/06/27 09:49:52;;;;;;;7.90;1.72;;;;;;;31.40;35.14;100641.94;1395877;92;21718;-80
2022/06/27 09:52:23;;;;;;;4.92;1.95;;;;;;;31.45;33.83;100635.64;1484221;92;22116;-80
2022/06/27 09:54:55;;;;;;;4.12;1.40;;;;;;;31.56;34.80;100636.38;1402068;92;21518;-80
2022/06/27 09:57:22;;;;;;;2.25;1.47;;;;;;;31.65;34.63;100630.05;1473453;92;21311;-80
2022/06/27 09:59:50;;;;;;;2.95;1.60;;;;;;;31.83;34.31;100634.02;1479276;92;21231;-80
2022/06/27 10:02:19;;;;;;;4.05;1.42;;;;;;;31.76;32.93;100633.51;1401808;93;21333;-80
2022/06/27 10:04:51;;;;;;;6.03;1.87;;;;;;;31.77;33.72;100624.22;1478989;92;21280;-80
2022/06/27 10:07:20;;;;;;;2.40;1.90;;;;;;;31.57;33.55;100623.80;1359270;92;21540;-80
2022/06/27 10:09:53;;;;;;;3.75;1.87;;;;;;;31.76;34.04;100622.56;1341935;92;22184;-80
2022/06/27 10:12:26;;;;;;;5.50;1.50;;;;;;;31.96;34.35;100619.45;1472202;92;21355;-81
2022/06/27 10:15:16;;;;;;;3.62;1.50;;;;;;;32.02;33.89;100619.67;1486815;92;21305;-80
2022/06/27 10:17:49;;;;;;;3.37;1.80;;;;;;;32.15;33.75;100613.55;1470730;92;22179;-80
2022/06/27 10:20:39;;;;;;;4.60;1.90;;;;;;;32.10;32.24;100610.84;1474205;92;21371;-81
2022/06/27 10:23:23;;;;;;;3.20;1.40;;;;;;;32.11;32.66;100612.47;1401793;92;21332;-80
2022/06/27 10:25:48;;;;;;;2.42;1.70;;;;;;;32.24;32.72;100607.70;1328840;91;21435;-81
2022/06/27 10:28:17;;;;;;;5.45;1.67;;;;;;;32.40;32.61;100608.92;1441142;92;21578;-88
2022/06/27 10:30:49;;;;;;;4.15;2.08;;;;;;;32.24;31.66;100604.97;1458477;92;21323;-87
2022/06/27 10:33:27;;;;;;;4.70;1.37;;;;;;;32.23;29.73;100601.98;1485622;92;22081;-87
2022/06/27 10:38:41;;;;;;;3.45;1.40;;;;;;;32.17;31.92;100594.92;1477770;92;22185;-86
2022/06/27 10:41:19;;;;;;;4.33;1.65;;;;;;;32.41;32.20;100596.87;1489670;92;21223;-86
2022/06/27 10:43:49;;;;;;;3.15;1.22;;;;;;;32.50;31.91;100597.91;1407887;91;21267;-87
2022/06/27 10:46:21;;;;;;;4.30;1.40;;;;;;;32.66;31.65;100593.09;1476246;91;21305;-87
2022/06/27 10:48:53;;;;;;;5.65;1.90;;;;;;;32.66;30.70;100588.42;1369155;92;21422;-87
2022/06/27 10:51:28;;;;;;;4.00;1.70;;;;;;;32.75;31.60;100589.41;1458910;92;21231;-87
2022/06/27 10:54:09;;;;;;;1.87;1.40;;;;;;;32.71;29.89;100593.81;1483945;92;21298;-88
2022/06/27 10:56:42;;;;;;;6.35;1.40;;;;;;;32.11;29.79;100584.56;1475981;92;21290;-88
2022/06/27 10:59:25;;;;;;;7.28;1.77;;;;;;;31.72;30.74;100590.61;1450606;94;21157;-87
2022/06/27 11:01:57;;;;;;;3.35;1.50;;;;;;;31.99;31.15;100580.00;1472244;92;21258;-86
2022/06/27 11:04:36;;;;;;;1.85;1.20;;;;;;;32.32;31.16;100581.07;1385471;94;21368;-86
2022/06/27 11:07:08;;;;;;;2.25;1.50;;;;;;;32.60;30.80;100571.78;1378301;94;21392;-88
2022/06/27 11:09:43;;;;;;;3.08;1.55;;;;;;;32.66;29.94;100570.61;1385585;94;21376;-88
2022/06/27 11:12:13;;;;;;;2.98;1.72;;;;;;;32.88;30.62;100567.31;1390390;92;21508;-87
2022/06/27 11:14:54;;;;;;;2.92;1.20;;;;;;;33.10;30.44;100566.79;1388116;93;22544;-89
2022/06/27 11:17:35;;;;;;;5.50;1.62;;;;;;;33.32;29.87;100565.38;1397284;93;21624;-86
2022/06/27 11:20:22;;;;;;;3.98;1.42;;;;;;;33.41;29.95;100566.36;1389364;93;21460;-87
2022/06/27 11:22:53;;;;;;;3.20;1.27;;;;;;;33.59;30.45;100567.48;1387067;94;21383;-86
2022/06/27 11:25:21;;;;;;;4.42;1.82;;;;;;;33.53;29.76;100570.87;1352952;96;21437;-87
2022/06/27 11:27:57;;;;;;;3.35;1.32;;;;;;;33.68;29.76;100573.36;1377243;94;21420;-87
2022/06/27 11:33:33;;;;;;;3.42;1.50;;;;;;;33.77;29.46;100570.75;1386331;93;21400;-87
2022/06/27 11:36:02;;;;;;;4.67;2.12;;;;;;;33.85;28.86;100566.52;1390429;94;22420;-87
2022/06/27 11:38:46;;;;;;;6.80;1.50;;;;;;;33.95;29.39;100573.19;1391695;94;21421;-87
2022/06/27 11:41:19;;;;;;;4.20;1.50;;;;;;;34.00;28.69;100559.95;1297921;94;21347;-86